createdAt,value
2019-02-27T00:00:50.292Z,6.20
2019-02-27T00:03:19.223Z,6.20
2019-02-27T00:05:47.771Z,6.30
2019-02-27T00:08:16.378Z,6.30
2019-02-27T00:10:44.956Z,6.30
2019-02-27T00:13:13.512Z,6.30
2019-02-27T00:15:42.076Z,6.30
2019-02-27T00:18:10.642Z,6.30
2019-02-27T00:20:39.212Z,6.30
2019-02-27T00:23:08.302Z,6.40
2019-02-27T00:25:36.902Z,6.50
2019-02-27T00:28:05.580Z,6.70
2019-02-27T00:30:37.894Z,6.80
2019-02-27T00:33:04.805Z,6.80
2019-02-27T00:35:33.380Z,6.80
2019-02-27T00:38:02.230Z,6.70
2019-02-27T00:40:30.776Z,6.50
2019-02-27T00:42:59.387Z,6.50
2019-02-27T00:45:27.933Z,6.50
2019-02-27T00:47:56.549Z,6.40
2019-02-27T00:50:25.233Z,6.30
2019-02-27T00:52:53.833Z,6.20
2019-02-27T00:55:22.396Z,6.10
2019-02-27T00:57:51.780Z,6.20
2019-02-27T01:00:21.386Z,6.20
2019-02-27T01:02:52.634Z,6.20
2019-02-27T01:05:20.173Z,6.20
2019-02-27T01:07:48.833Z,6.30
2019-02-27T01:10:17.392Z,6.30
2019-02-27T01:12:45.973Z,6.40
2019-02-27T01:15:14.890Z,6.40
2019-02-27T01:17:43.740Z,6.60
2019-02-27T01:20:14.498Z,6.60
2019-02-27T01:22:43.220Z,6.60
2019-02-27T01:25:12.164Z,6.50
2019-02-27T01:27:40.824Z,6.50
2019-02-27T01:30:19.115Z,6.40
2019-02-27T01:32:47.676Z,6.40
2019-02-27T01:35:18.801Z,6.30
2019-02-27T01:37:46.517Z,6.30
2019-02-27T01:40:17.837Z,6.40
2019-02-27T01:42:46.301Z,6.40
2019-02-27T01:45:20.829Z,6.30
2019-02-27T01:47:46.759Z,6.30
2019-02-27T01:50:32.288Z,6.20
2019-02-27T01:53:01.017Z,6.20
2019-02-27T01:55:29.814Z,6.20
2019-02-27T01:57:58.464Z,6.20
2019-02-27T02:00:27.212Z,6.20
2019-02-27T02:02:55.796Z,6.10
2019-02-27T02:05:27.222Z,6.00
2019-02-27T02:07:56.219Z,6.00
2019-02-27T02:10:28.089Z,5.90
2019-02-27T02:12:58.817Z,5.70
2019-02-27T02:15:45.780Z,5.50
2019-02-27T02:18:20.348Z,5.30
2019-02-27T02:20:54.632Z,5.20
2019-02-27T02:23:35.269Z,5.10
2019-02-27T02:26:18.763Z,5.10
2019-02-27T02:28:56.166Z,5.20
2019-02-27T02:31:27.859Z,5.20
2019-02-27T02:34:11.660Z,5.30
2019-02-27T02:37:01.352Z,5.20
2019-02-27T02:39:44.926Z,5.20
2019-02-27T02:42:25.562Z,5.30
2019-02-27T02:45:19.800Z,5.40
2019-02-27T02:48:03.581Z,5.50
2019-02-27T02:50:46.819Z,5.50
2019-02-27T02:53:48.766Z,5.60
2019-02-27T02:56:24.875Z,5.60
2019-02-27T02:59:14.729Z,5.70
2019-02-27T03:01:50.146Z,5.60
2019-02-27T03:04:41.498Z,5.50
2019-02-27T03:07:23.313Z,5.40
2019-02-27T03:10:19.513Z,5.40
2019-02-27T03:12:51.200Z,5.40
2019-02-27T03:15:31.913Z,5.40
2019-02-27T03:18:20.529Z,5.30
2019-02-27T03:20:58.085Z,5.30
2019-02-27T03:23:52.616Z,5.20
2019-02-27T03:26:27.199Z,5.10
2019-02-27T03:29:01.384Z,5.10
2019-02-27T03:31:38.985Z,5.10
2019-02-27T03:34:10.653Z,5.10
2019-02-27T03:36:50.492Z,5.00
2019-02-27T03:39:47.957Z,5.00
2019-02-27T03:42:38.032Z,4.90
2019-02-27T03:45:43.230Z,4.90
2019-02-27T03:48:32.895Z,4.90
2019-02-27T03:51:10.501Z,5.00
2019-02-27T03:53:43.200Z,5.10
2019-02-27T03:56:33.848Z,5.00
2019-02-27T03:59:11.093Z,4.90
2019-02-27T04:02:05.793Z,4.80
2019-02-27T04:04:42.981Z,4.90
2019-02-27T04:07:38.910Z,4.90
2019-02-27T04:10:07.526Z,5.00
2019-02-27T04:12:36.108Z,5.10
2019-02-27T04:15:07.709Z,5.20
2019-02-27T04:17:35.217Z,5.30
2019-02-27T04:20:04.405Z,5.30
2019-02-27T04:22:36.264Z,5.30
2019-02-27T04:25:03.250Z,5.20
2019-02-27T04:27:32.109Z,5.20
2019-02-27T04:30:00.656Z,5.10
2019-02-27T04:32:29.240Z,4.90
2019-02-27T04:34:57.792Z,4.80
2019-02-27T04:37:26.708Z,4.70
2019-02-27T04:39:55.388Z,4.60
2019-02-27T04:42:25.744Z,4.60
2019-02-27T04:44:54.145Z,4.50
2019-02-27T04:47:22.696Z,4.50
2019-02-27T04:49:51.272Z,4.40
2019-02-27T04:52:21.931Z,4.40
2019-02-27T04:54:50.064Z,4.40
2019-02-27T04:57:18.612Z,4.50
2019-02-27T04:59:49.711Z,4.60
2019-02-27T05:02:18.148Z,4.50
2019-02-27T05:04:46.698Z,4.50
2019-02-27T05:07:15.267Z,4.30
2019-02-27T05:09:43.817Z,4.30
2019-02-27T05:12:12.705Z,4.20
2019-02-27T05:14:41.256Z,4.20
2019-02-27T05:17:09.953Z,4.20
2019-02-27T05:19:38.824Z,4.20
2019-02-27T05:22:07.542Z,4.40
2019-02-27T05:24:36.096Z,4.50
2019-02-27T05:27:04.721Z,4.60
2019-02-27T05:29:35.142Z,4.70
2019-02-27T05:32:03.497Z,4.70
2019-02-27T05:34:32.389Z,4.70
2019-02-27T05:37:05.088Z,4.50
2019-02-27T05:39:33.763Z,4.20
2019-02-27T05:42:06.114Z,3.90
2019-02-27T05:44:32.228Z,3.80
2019-02-27T05:47:00.879Z,3.90
2019-02-27T05:49:29.440Z,4.00
2019-02-27T05:51:58.025Z,4.10
2019-02-27T05:54:29.923Z,4.20
2019-02-27T05:56:57.852Z,4.20
2019-02-27T05:59:29.160Z,4.30
2019-02-27T06:01:56.660Z,4.30
2019-02-27T06:04:25.720Z,4.40
2019-02-27T06:06:54.612Z,4.40
2019-02-27T06:09:23.161Z,4.40
2019-02-27T06:11:51.852Z,4.40
2019-02-27T06:14:21.493Z,4.50
2019-02-27T06:16:50.581Z,4.50
2019-02-27T06:19:19.159Z,4.50
2019-02-27T06:21:47.756Z,4.50
2019-02-27T06:24:16.304Z,4.60
2019-02-27T06:26:44.958Z,4.60
2019-02-27T06:29:13.558Z,4.60
2019-02-27T06:31:42.108Z,4.50
2019-02-27T06:34:10.680Z,4.50
2019-02-27T06:36:42.195Z,4.50
2019-02-27T06:39:09.461Z,4.70
2019-02-27T06:41:39.864Z,4.80
2019-02-27T06:44:08.264Z,5.00
2019-02-27T06:46:36.816Z,5.30
2019-02-27T06:49:05.393Z,5.60
2019-02-27T06:51:35.878Z,5.90
2019-02-27T06:54:04.248Z,6.30
2019-02-27T06:56:33.088Z,6.50
2019-02-27T06:59:01.689Z,6.70
2019-02-27T07:01:30.239Z,6.90
2019-02-27T07:03:58.791Z,7.20
2019-02-27T07:06:27.696Z,7.70
2019-02-27T07:08:56.252Z,8.00
2019-02-27T07:11:24.928Z,8.30
2019-02-27T07:13:53.493Z,8.60
2019-02-27T07:16:22.907Z,9.40
2019-02-27T07:18:52.259Z,10.90
2019-02-27T07:21:20.817Z,11.80
2019-02-27T07:23:49.407Z,12.80
2019-02-27T07:26:17.966Z,14.30
2019-02-27T07:28:46.541Z,14.60
2019-02-27T07:31:17.507Z,13.40
2019-02-27T07:33:45.332Z,12.50
2019-02-27T07:36:13.876Z,11.40
2019-02-27T07:38:42.560Z,11.00
2019-02-27T07:41:11.152Z,10.60
2019-02-27T07:43:39.792Z,10.90
2019-02-27T07:46:08.353Z,11.60
2019-02-27T07:48:37.102Z,12.30
2019-02-27T07:51:05.755Z,13.10
2019-02-27T07:53:34.328Z,13.70
2019-02-27T07:56:02.916Z,15.10
2019-02-27T07:58:33.705Z,15.90
2019-02-27T08:01:01.773Z,16.50
2019-02-27T08:03:30.404Z,16.30
2019-02-27T08:05:59.803Z,16.70
2019-02-27T08:08:29.620Z,17.00
2019-02-27T08:10:58.292Z,17.30
2019-02-27T08:13:27.058Z,17.50
2019-02-27T08:15:57.963Z,17.90
2019-02-27T08:18:30.074Z,18.60
2019-02-27T08:20:56.844Z,19.70
2019-02-27T08:23:25.492Z,20.20
2019-02-27T08:25:54.036Z,21.50
2019-02-27T08:28:22.616Z,23.10
2019-02-27T08:30:51.224Z,24.20
2019-02-27T08:33:19.805Z,24.90
2019-02-27T08:35:48.356Z,25.40
2019-02-27T08:38:16.953Z,26.10
2019-02-27T08:40:45.907Z,27.00
2019-02-27T08:43:14.464Z,26.90
2019-02-27T08:45:43.040Z,27.20
2019-02-27T08:48:11.596Z,27.00
2019-02-27T08:50:40.176Z,27.70
2019-02-27T08:53:08.737Z,27.60
2019-02-27T08:55:39.344Z,28.90
2019-02-27T08:58:07.822Z,29.80
2019-02-27T09:00:36.804Z,30.40
2019-02-27T09:03:05.404Z,31.00
2019-02-27T09:05:33.941Z,32.00
2019-02-27T09:08:02.632Z,31.30
2019-02-27T09:10:31.321Z,32.60
2019-02-27T09:13:05.254Z,33.70
2019-02-27T09:15:30.084Z,33.50
2019-02-27T09:17:59.229Z,33.60
2019-02-27T09:20:28.870Z,33.90
2019-02-27T09:22:57.473Z,33.80
2019-02-27T09:25:26.032Z,34.00
2019-02-27T09:27:54.609Z,34.00
2019-02-27T09:30:28.889Z,34.50
2019-02-27T09:32:55.846Z,35.70
2019-02-27T09:35:24.478Z,36.00
2019-02-27T09:37:53.064Z,34.20
2019-02-27T09:40:29.824Z,35.80
2019-02-27T09:42:58.679Z,36.40
2019-02-27T09:45:35.048Z,38.80
2019-02-27T09:48:04.312Z,38.00
2019-02-27T09:50:35.191Z,38.40
2019-02-27T09:53:04.444Z,40.20
2019-02-27T09:55:33.251Z,42.00
2019-02-27T09:58:02.052Z,43.10
2019-02-27T10:01:00.717Z,43.20
2019-02-27T10:03:27.584Z,44.10
2019-02-27T10:05:56.334Z,44.80
2019-02-27T10:08:25.615Z,45.30
2019-02-27T10:10:54.994Z,45.40
2019-02-27T10:13:23.556Z,44.90
2019-02-27T10:15:52.140Z,45.00
2019-02-27T10:18:22.094Z,45.00
2019-02-27T10:20:50.795Z,44.90
2019-02-27T10:23:19.360Z,45.00
2019-02-27T10:25:49.875Z,45.50
2019-02-27T10:28:18.633Z,45.40
2019-02-27T10:30:49.947Z,45.20
2019-02-27T10:33:17.488Z,45.90
2019-02-27T10:35:46.287Z,46.70
2019-02-27T10:38:14.872Z,47.40
2019-02-27T10:40:46.050Z,47.10
2019-02-27T10:43:13.656Z,47.70
2019-02-27T10:45:42.348Z,48.20
2019-02-27T10:48:12.595Z,48.40
2019-02-27T10:50:41.260Z,48.30
2019-02-27T10:53:09.964Z,48.50
2019-02-27T10:55:38.524Z,48.10
2019-02-27T10:58:07.774Z,47.40
2019-02-27T11:00:36.407Z,47.80
2019-02-27T11:03:05.049Z,48.50
2019-02-27T11:05:38.620Z,44.00
2019-02-27T11:08:07.264Z,44.60
2019-02-27T11:10:36.084Z,39.40
2019-02-27T11:13:06.666Z,41.30
2019-02-27T11:15:35.058Z,43.20
2019-02-27T11:18:05.583Z,43.40
2019-02-27T11:20:34.108Z,41.30
2019-02-27T11:23:06.451Z,43.30
2019-02-27T11:25:33.141Z,44.50
2019-02-27T11:28:01.772Z,45.60
2019-02-27T11:30:37.069Z,45.60
2019-02-27T11:33:06.151Z,45.30
2019-02-27T11:35:34.712Z,44.10
2019-02-27T11:38:03.390Z,41.10
2019-02-27T11:40:32.009Z,38.00
2019-02-27T11:43:01.181Z,32.80
2019-02-27T11:45:30.082Z,32.00
2019-02-27T11:47:58.737Z,31.00
2019-02-27T11:50:27.292Z,30.30
2019-02-27T11:52:55.939Z,30.30
2019-02-27T11:55:24.710Z,29.80
2019-02-27T11:57:53.411Z,29.70
2019-02-27T12:00:27.464Z,29.70
2019-02-27T12:02:57.289Z,29.50
2019-02-27T12:05:33.805Z,29.20
2019-02-27T12:07:59.568Z,28.60
2019-02-27T12:10:31.919Z,28.30
2019-02-27T12:13:01.312Z,27.80
2019-02-27T12:15:30.449Z,27.70
2019-02-27T12:18:00.448Z,27.30
2019-02-27T12:20:29.847Z,27.10
2019-02-27T12:22:58.410Z,26.70
2019-02-27T12:25:29.842Z,26.30
2019-02-27T12:27:57.338Z,26.00
2019-02-27T12:30:28.001Z,25.40
2019-02-27T12:32:57.213Z,24.90
2019-02-27T12:35:33.140Z,24.30
2019-02-27T12:38:07.057Z,23.80
2019-02-27T12:40:31.995Z,23.40
2019-02-27T12:43:00.629Z,22.80
2019-02-27T12:45:31.172Z,22.20
2019-02-27T12:47:59.856Z,21.80
2019-02-27T12:50:31.142Z,21.40
2019-02-27T12:52:59.766Z,21.10
2019-02-27T12:55:28.765Z,20.90
2019-02-27T12:57:57.553Z,20.70
2019-02-27T13:00:30.712Z,20.60
2019-02-27T13:02:59.528Z,20.50
2019-02-27T13:05:28.462Z,20.50
2019-02-27T13:07:57.357Z,20.50
2019-02-27T13:10:26.985Z,20.30
2019-02-27T13:12:56.073Z,20.00
2019-02-27T13:15:26.965Z,19.80
2019-02-27T13:17:57.626Z,19.70
2019-02-27T13:20:34.302Z,19.60
2019-02-27T13:23:05.140Z,19.60
2019-02-27T13:25:33.464Z,19.60
2019-02-27T13:28:02.106Z,19.50
2019-02-27T13:30:31.003Z,19.50
2019-02-27T13:33:02.011Z,19.30
2019-02-27T13:35:30.764Z,19.20
2019-02-27T13:37:59.459Z,19.10
2019-02-27T13:40:29.164Z,19.10
2019-02-27T13:42:57.818Z,18.70
2019-02-27T13:45:28.710Z,18.70
2019-02-27T13:47:58.998Z,18.70
2019-02-27T13:50:27.940Z,18.80
2019-02-27T13:52:56.589Z,18.80
2019-02-27T13:55:25.233Z,18.90
2019-02-27T13:57:58.791Z,19.00
2019-02-27T14:00:27.117Z,18.90
2019-02-27T14:02:56.048Z,19.00
2019-02-27T14:05:24.875Z,19.10
2019-02-27T14:07:57.174Z,18.70
2019-02-27T14:10:27.360Z,18.80
2019-02-27T14:12:56.093Z,19.00
2019-02-27T14:15:27.391Z,19.10
2019-02-27T14:17:55.219Z,19.10
2019-02-27T14:20:27.026Z,19.20
2019-02-27T14:22:55.908Z,19.00
2019-02-27T14:25:32.594Z,18.70
2019-02-27T14:28:00.053Z,18.70
2019-02-27T14:30:38.273Z,18.50
2019-02-27T14:33:06.853Z,18.50
2019-02-27T14:35:36.537Z,18.50
2019-02-27T14:38:05.308Z,18.50
2019-02-27T14:40:37.769Z,18.50
2019-02-27T14:43:05.088Z,18.60
2019-02-27T14:45:34.065Z,18.60
2019-02-27T14:48:02.709Z,18.70
2019-02-27T14:50:34.507Z,18.70
2019-02-27T14:53:01.626Z,18.70
2019-02-27T14:55:30.177Z,18.60
2019-02-27T14:57:58.770Z,18.60
2019-02-27T15:00:32.399Z,18.60
2019-02-27T15:03:00.980Z,18.50
2019-02-27T15:05:29.555Z,18.60
2019-02-27T15:07:58.812Z,18.60
2019-02-27T15:10:27.459Z,18.60
2019-02-27T15:12:56.046Z,18.60
2019-02-27T15:15:29.790Z,18.60
2019-02-27T15:17:58.796Z,18.50
2019-02-27T15:20:28.706Z,18.40
2019-02-27T15:22:57.505Z,18.40
2019-02-27T15:25:27.623Z,18.40
2019-02-27T15:27:58.900Z,18.40
2019-02-27T15:30:31.767Z,18.30
2019-02-27T15:33:03.574Z,18.30
2019-02-27T15:35:30.557Z,18.30
2019-02-27T15:37:59.528Z,18.30
2019-02-27T15:40:30.147Z,18.30
2019-02-27T15:42:58.874Z,18.30
2019-02-27T15:45:28.410Z,18.30
2019-02-27T15:47:57.177Z,18.20
2019-02-27T15:50:33.188Z,18.20
2019-02-27T15:53:01.749Z,18.10
2019-02-27T15:55:34.231Z,18.00
2019-02-27T15:58:00.624Z,18.00
2019-02-27T16:00:30.341Z,17.90
2019-02-27T16:02:58.930Z,17.90
2019-02-27T16:05:31.450Z,17.80
2019-02-27T16:07:57.719Z,17.70
2019-02-27T16:10:27.316Z,17.70
2019-02-27T16:13:00.055Z,17.70
2019-02-27T16:15:27.315Z,17.60
2019-02-27T16:17:55.892Z,17.60
2019-02-27T16:20:28.205Z,17.50
2019-02-27T16:22:57.193Z,17.50
2019-02-27T16:25:27.720Z,17.40
2019-02-27T16:27:56.578Z,17.40
2019-02-27T16:30:33.097Z,17.30
2019-02-27T16:33:01.909Z,17.30
2019-02-27T16:35:30.543Z,17.20
2019-02-27T16:37:59.172Z,17.20
2019-02-27T16:40:29.337Z,17.10
2019-02-27T16:42:58.004Z,17.10
2019-02-27T16:45:32.166Z,17.10
2019-02-27T16:47:59.495Z,17.00
2019-02-27T16:50:28.430Z,17.00
2019-02-27T16:52:57.076Z,17.00
2019-02-27T16:55:26.965Z,16.90
2019-02-27T16:57:57.624Z,16.90
2019-02-27T17:00:33.630Z,16.70
2019-02-27T17:03:02.277Z,16.60
2019-02-27T17:05:31.865Z,16.40
2019-02-27T17:08:02.439Z,16.30
2019-02-27T17:10:33.536Z,16.20
2019-02-27T17:13:02.113Z,16.10
2019-02-27T17:15:34.761Z,15.90
2019-02-27T17:18:01.394Z,15.60
2019-02-27T17:20:30.192Z,15.40
2019-02-27T17:22:58.779Z,15.30
2019-02-27T17:25:30.008Z,15.20
2019-02-27T17:27:57.655Z,15.10
2019-02-27T17:30:37.695Z,15.00
2019-02-27T17:33:05.300Z,14.90
2019-02-27T17:35:34.062Z,14.80
2019-02-27T17:38:03.199Z,14.70
2019-02-27T17:40:36.658Z,14.60
2019-02-27T17:43:02.129Z,14.50
2019-02-27T17:45:30.948Z,14.30
2019-02-27T17:47:59.561Z,14.10
2019-02-27T17:50:31.239Z,13.90
2019-02-27T17:52:58.554Z,13.70
2019-02-27T17:55:27.132Z,13.60
2019-02-27T17:57:58.582Z,13.50
2019-02-27T18:00:39.057Z,13.40
2019-02-27T18:03:07.716Z,13.30
2019-02-27T18:05:36.356Z,13.10
2019-02-27T18:08:05.177Z,13.10
2019-02-27T18:10:37.187Z,13.20
2019-02-27T18:13:04.535Z,13.30
2019-02-27T18:15:33.254Z,13.30
2019-02-27T18:18:01.889Z,13.40
2019-02-27T18:20:32.293Z,13.40
2019-02-27T18:23:01.233Z,13.40
2019-02-27T18:25:30.032Z,13.30
2019-02-27T18:27:59.810Z,13.30
2019-02-27T18:30:28.563Z,13.30
2019-02-27T18:32:57.153Z,13.30
2019-02-27T18:35:28.670Z,13.40
2019-02-27T18:37:56.193Z,13.40
2019-02-27T18:40:24.829Z,13.40
2019-02-27T18:42:56.369Z,13.40
2019-02-27T18:45:28.563Z,13.30
2019-02-27T18:47:58.740Z,13.30
2019-02-27T18:50:27.506Z,13.30
2019-02-27T18:52:56.197Z,13.30
2019-02-27T18:55:29.201Z,13.20
2019-02-27T18:57:54.984Z,12.90
2019-02-27T19:00:30.141Z,12.80
2019-02-27T19:03:07.680Z,12.70
2019-02-27T19:05:38.137Z,12.70
2019-02-27T19:08:06.999Z,12.60
2019-02-27T19:10:38.608Z,12.70
2019-02-27T19:13:05.911Z,12.70
2019-02-27T19:15:34.596Z,12.70
2019-02-27T19:18:03.661Z,12.80
2019-02-27T19:20:38.649Z,12.80
2019-02-27T19:23:07.345Z,12.90
2019-02-27T19:25:36.073Z,12.90
2019-02-27T19:28:05.543Z,12.90
2019-02-27T19:30:34.826Z,12.80
2019-02-27T19:33:03.592Z,12.40
2019-02-27T19:35:32.173Z,12.10
2019-02-27T19:38:00.933Z,11.90
2019-02-27T19:40:30.553Z,11.90
2019-02-27T19:43:02.417Z,11.80
2019-02-27T19:45:31.607Z,11.90
2019-02-27T19:48:00.325Z,11.90
2019-02-27T19:50:29.340Z,11.70
2019-02-27T19:53:03.413Z,11.50
2019-02-27T19:55:28.465Z,11.50
2019-02-27T19:57:57.123Z,11.50
2019-02-27T20:00:33.569Z,11.50
2019-02-27T20:03:01.180Z,11.40
2019-02-27T20:05:29.860Z,11.20
2019-02-27T20:07:59.271Z,11.00
2019-02-27T20:10:30.994Z,10.80
2019-02-27T20:12:58.600Z,10.70
2019-02-27T20:15:27.624Z,10.60
2019-02-27T20:17:56.421Z,10.70
2019-02-27T20:20:25.740Z,10.70
2019-02-27T20:22:54.966Z,10.70
2019-02-27T20:25:28.757Z,10.90
2019-02-27T20:27:58.685Z,10.90
2019-02-27T20:30:27.800Z,10.90
2019-02-27T20:32:56.869Z,10.90
2019-02-27T20:35:25.443Z,10.90
2019-02-27T20:37:54.275Z,10.90
2019-02-27T20:40:22.915Z,10.90
2019-02-27T20:42:54.857Z,10.80
2019-02-27T20:45:23.021Z,10.70
2019-02-27T20:47:57.614Z,10.50
2019-02-27T20:50:44.880Z,10.40
2019-02-27T20:53:14.646Z,10.30
2019-02-27T20:55:43.205Z,10.20
2019-02-27T20:58:15.995Z,10.20
2019-02-27T21:00:42.245Z,10.20
2019-02-27T21:03:11.228Z,10.20
2019-02-27T21:05:41.004Z,10.30
2019-02-27T21:08:10.283Z,10.40
2019-02-27T21:10:39.185Z,10.50
2019-02-27T21:13:07.852Z,10.70
2019-02-27T21:15:36.501Z,10.80
2019-02-27T21:18:05.200Z,11.00
2019-02-27T21:20:33.776Z,11.20
2019-02-27T21:23:02.408Z,11.10
2019-02-27T21:25:31.504Z,10.90
2019-02-27T21:28:00.112Z,10.60
2019-02-27T21:30:28.694Z,10.30
2019-02-27T21:32:57.258Z,10.10
2019-02-27T21:35:28.674Z,9.90
2019-02-27T21:37:56.264Z,9.70
2019-02-27T21:40:24.830Z,9.60
2019-02-27T21:42:53.403Z,9.60
2019-02-27T21:45:23.428Z,9.50
2019-02-27T21:47:52.954Z,9.40
2019-02-27T21:50:23.229Z,9.30
2019-02-27T21:52:54.520Z,9.00
2019-02-27T21:55:22.289Z,8.90
2019-02-27T21:57:50.940Z,8.70
2019-02-27T22:00:23.012Z,8.50
2019-02-27T22:02:52.920Z,8.40
2019-02-27T22:05:21.544Z,8.20
2019-02-27T22:07:50.475Z,8.10
2019-02-27T22:10:20.336Z,8.10
2019-02-27T22:12:49.338Z,8.00
2019-02-27T22:15:28.828Z,7.90
2019-02-27T22:17:57.658Z,7.80
2019-02-27T22:20:27.007Z,7.80
2019-02-27T22:22:56.270Z,7.80
2019-02-27T22:25:30.007Z,7.70
2019-02-27T22:27:55.485Z,7.60
2019-02-27T22:30:24.475Z,7.70
2019-02-27T22:32:53.104Z,7.70
2019-02-27T22:35:21.759Z,8.20
2019-02-27T22:37:52.343Z,8.90
2019-02-27T22:40:22.098Z,9.50
2019-02-27T22:42:50.883Z,9.60
2019-02-27T22:45:22.764Z,9.70
2019-02-27T22:47:53.888Z,9.60
2019-02-27T22:50:22.236Z,9.70
2019-02-27T22:52:54.129Z,9.70
2019-02-27T22:55:21.599Z,9.60
2019-02-27T22:57:50.472Z,9.40
2019-02-27T23:00:26.462Z,9.10
2019-02-27T23:02:55.332Z,8.80
2019-02-27T23:05:24.332Z,8.50
2019-02-27T23:07:52.928Z,8.20
2019-02-27T23:10:21.551Z,8.00
2019-02-27T23:12:50.124Z,7.80
2019-02-27T23:15:18.677Z,7.70
2019-02-27T23:17:47.256Z,7.60
2019-02-27T23:20:17.439Z,7.50
2019-02-27T23:22:46.269Z,7.40
2019-02-27T23:25:15.662Z,7.30
2019-02-27T23:27:44.975Z,7.30
2019-02-27T23:30:15.903Z,7.30
2019-02-27T23:32:44.184Z,7.30
2019-02-27T23:35:16.034Z,7.20
2019-02-27T23:37:43.108Z,7.10
2019-02-27T23:40:17.034Z,7.10
2019-02-27T23:42:42.825Z,7.10
2019-02-27T23:45:11.481Z,7.10
2019-02-27T23:47:40.032Z,7.20
2019-02-27T23:50:12.026Z,7.30
2019-02-27T23:52:40.776Z,7.30
2019-02-27T23:55:09.965Z,7.30
2019-02-27T23:57:39.344Z,7.40
